Ardenhurst, Minnesota
Current Conditions -  °F | °C
As of 6:13 PM on Friday 19 Dec 2014 (Local Time) from KFOZ Reporting Station
Light Snow Light Snow  
Wind Chill: -8°   Ceiling: 900
Heat Index: -4°   Visibility: 3mi
Dew Point: -6°   Wind: 6mph
Humidity: 86%   Direction: 160°SSE
Pressure: 30.1"   Gusts: NA
Location:  47.8312°N, 94.1459°W
Report Text: KFOZ 200013Z AUTO 16005KT 3SM -SN OVC009 M04/M06 A3010 RMK AO2
Loading
Personal Weather Stations






























Interactive Weather Map New forecast layout! Learn more

10-Day Weather Forecast

Advertisements
Track Severe Weather on mobile